createdAt,value
2019-03-31T00:01:12.145Z,79.28
2019-03-31T00:03:47.737Z,79.28
2019-03-31T00:06:24.102Z,79.21
2019-03-31T00:08:59.372Z,79.39
2019-03-31T00:11:34.151Z,79.69
2019-03-31T00:14:08.605Z,79.70
2019-03-31T00:16:43.486Z,79.43
2019-03-31T00:19:18.556Z,79.81
2019-03-31T00:21:53.032Z,79.74
2019-03-31T00:24:27.556Z,80.20
2019-03-31T00:27:02.242Z,79.92
2019-03-31T00:29:37.185Z,80.29
2019-03-31T00:32:13.992Z,80.25
2019-03-31T00:34:50.011Z,80.36
2019-03-31T00:37:26.480Z,80.84
2019-03-31T00:40:00.858Z,80.91
2019-03-31T00:42:35.430Z,80.90
2019-03-31T00:45:10.666Z,81.54
2019-03-31T00:47:45.474Z,81.46
2019-03-31T00:50:19.907Z,81.58
2019-03-31T00:52:54.817Z,81.65
2019-03-31T00:55:29.619Z,82.26
2019-03-31T00:58:04.831Z,81.95
2019-03-31T01:00:57.251Z,82.05
2019-03-31T01:03:35.211Z,82.11
2019-03-31T01:06:10.167Z,82.43
2019-03-31T01:08:45.021Z,82.53
2019-03-31T01:11:27.559Z,82.56
2019-03-31T01:14:03.180Z,82.82
2019-03-31T01:16:39.571Z,83.38
2019-03-31T01:19:14.593Z,83.40
2019-03-31T01:21:50.949Z,83.34
2019-03-31T01:24:25.518Z,83.03
2019-03-31T01:27:00.408Z,82.93
2019-03-31T01:29:34.967Z,83.04
2019-03-31T01:32:09.560Z,83.54
2019-03-31T01:34:44.089Z,83.71
2019-03-31T01:37:20.222Z,84.28
2019-03-31T01:39:55.258Z,84.69
2019-03-31T01:42:32.058Z,84.66
2019-03-31T01:45:06.758Z,84.09
2019-03-31T01:47:41.570Z,84.01
2019-03-31T01:50:17.759Z,83.95
2019-03-31T01:52:54.229Z,83.89
2019-03-31T01:55:38.297Z,83.72
2019-03-31T01:58:13.002Z,84.13
2019-03-31T02:00:56.137Z,84.15
2019-03-31T02:03:31.181Z,84.29
2019-03-31T02:06:05.951Z,84.03
2019-03-31T02:08:40.399Z,84.54
2019-03-31T02:11:14.988Z,84.75
2019-03-31T02:13:49.429Z,84.87
2019-03-31T02:16:24.971Z,84.95
2019-03-31T02:18:59.555Z,85.45
2019-03-31T02:21:35.712Z,85.93
2019-03-31T02:24:11.878Z,86.33
2019-03-31T02:26:46.717Z,86.21
2019-03-31T02:29:21.148Z,86.33
2019-03-31T02:31:56.023Z,86.56
2019-03-31T02:34:30.509Z,86.71
2019-03-31T02:37:05.436Z,86.89
2019-03-31T02:39:40.116Z,86.53
2019-03-31T02:42:14.993Z,86.61
2019-03-31T02:44:49.441Z,86.41
2019-03-31T02:47:24.003Z,86.31
2019-03-31T02:49:59.961Z,86.27
2019-03-31T02:52:34.643Z,85.48
2019-03-31T02:55:09.414Z,85.72
2019-03-31T02:57:45.010Z,85.20
2019-03-31T03:00:19.368Z,84.74
2019-03-31T03:02:53.973Z,85.51
2019-03-31T03:05:30.556Z,86.00
2019-03-31T03:08:09.177Z,85.68
2019-03-31T03:10:45.985Z,85.74
2019-03-31T03:13:23.155Z,86.26
2019-03-31T03:16:26.736Z,86.37
2019-03-31T03:19:02.932Z,86.30
2019-03-31T03:21:37.545Z,86.94
2019-03-31T03:24:13.824Z,87.17
2019-03-31T03:26:50.158Z,87.08
2019-03-31T03:29:24.828Z,87.68
2019-03-31T03:31:59.830Z,87.82
2019-03-31T03:34:34.647Z,87.76
2019-03-31T03:37:09.417Z,88.16
2019-03-31T03:39:45.892Z,88.43
2019-03-31T03:42:20.228Z,89.00
2019-03-31T03:44:54.658Z,89.26
2019-03-31T03:47:30.985Z,89.01
2019-03-31T03:50:05.643Z,88.17
2019-03-31T03:52:40.247Z,88.87
2019-03-31T03:55:14.990Z,89.10
2019-03-31T03:57:49.569Z,88.98
2019-03-31T04:00:25.674Z,89.10
2019-03-31T04:03:03.183Z,89.09
2019-03-31T04:05:39.524Z,88.66
2019-03-31T04:08:14.459Z,88.09
2019-03-31T04:11:14.429Z,87.35
2019-03-31T04:13:49.084Z,86.87
2019-03-31T04:16:23.680Z,86.92
2019-03-31T04:18:58.621Z,87.25
2019-03-31T04:21:35.007Z,87.50
2019-03-31T04:24:09.582Z,87.97
2019-03-31T04:26:46.231Z,87.74
2019-03-31T04:29:20.727Z,88.08
2019-03-31T04:31:55.242Z,87.94
2019-03-31T04:34:29.888Z,87.43
2019-03-31T04:37:07.374Z,87.10
2019-03-31T04:39:43.425Z,87.64
2019-03-31T04:42:18.027Z,86.87
2019-03-31T04:44:52.617Z,87.37
2019-03-31T04:47:27.208Z,87.33
2019-03-31T04:50:01.641Z,86.53
2019-03-31T04:52:36.474Z,86.62
2019-03-31T04:55:12.346Z,87.71
2019-03-31T04:57:46.844Z,87.88
2019-03-31T05:00:21.444Z,87.67
2019-03-31T05:02:56.391Z,87.28
2019-03-31T05:05:30.900Z,87.46
2019-03-31T05:08:05.772Z,87.11
2019-03-31T05:10:40.385Z,87.89
2019-03-31T05:13:15.269Z,87.55
2019-03-31T05:15:50.041Z,87.78
2019-03-31T05:18:24.515Z,87.47
2019-03-31T05:20:59.111Z,87.46
2019-03-31T05:23:33.590Z,87.16
2019-03-31T05:26:08.551Z,87.12
2019-03-31T05:28:44.306Z,86.90
2019-03-31T05:31:20.767Z,86.47
2019-03-31T05:33:57.453Z,87.05
2019-03-31T05:36:32.251Z,86.73
2019-03-31T05:39:08.793Z,86.55
2019-03-31T05:41:43.476Z,86.43
2019-03-31T05:44:17.996Z,86.77
2019-03-31T05:46:52.523Z,86.05
2019-03-31T05:49:27.030Z,85.71
2019-03-31T05:52:01.575Z,85.23
2019-03-31T05:54:36.203Z,84.77
2019-03-31T05:57:10.613Z,84.87
2019-03-31T05:59:45.370Z,84.62
2019-03-31T06:02:20.564Z,84.24
2019-03-31T06:04:55.114Z,84.53
2019-03-31T06:07:29.881Z,83.97
2019-03-31T06:10:04.918Z,84.66
2019-03-31T06:12:41.247Z,83.77
2019-03-31T06:15:17.331Z,83.68
2019-03-31T06:17:51.969Z,84.17
2019-03-31T06:20:28.364Z,83.14
2019-03-31T06:23:03.151Z,82.03
2019-03-31T06:25:37.919Z,80.53
2019-03-31T06:28:12.341Z,78.62
2019-03-31T06:30:47.009Z,77.92
2019-03-31T06:33:21.627Z,78.56
2019-03-31T06:35:56.455Z,79.68
2019-03-31T06:38:31.095Z,78.56
2019-03-31T06:41:05.480Z,78.54
2019-03-31T06:43:40.836Z,78.62
2019-03-31T06:46:15.211Z,78.71
2019-03-31T06:48:51.558Z,77.91
2019-03-31T06:51:25.919Z,77.84
2019-03-31T06:54:03.989Z,77.48
2019-03-31T06:56:40.285Z,76.37
2019-03-31T06:59:17.211Z,74.27
2019-03-31T07:01:51.687Z,73.13
2019-03-31T07:04:26.262Z,72.43
2019-03-31T07:07:02.869Z,73.59
2019-03-31T07:09:37.905Z,71.16
2019-03-31T07:12:12.869Z,71.40
2019-03-31T07:14:47.474Z,70.10
2019-03-31T07:17:22.039Z,69.53
2019-03-31T07:19:56.687Z,69.43
2019-03-31T07:22:32.695Z,71.43
2019-03-31T07:25:08.978Z,71.18
2019-03-31T07:27:43.828Z,70.32
2019-03-31T07:30:19.693Z,71.87
2019-03-31T07:32:54.153Z,71.75
2019-03-31T07:35:29.088Z,72.39
2019-03-31T07:38:03.573Z,72.98
2019-03-31T07:40:38.447Z,74.63
2019-03-31T07:43:13.376Z,74.99
2019-03-31T07:45:47.964Z,74.28
2019-03-31T07:48:22.577Z,75.36
2019-03-31T07:50:57.630Z,75.62
2019-03-31T07:53:32.213Z,76.01
2019-03-31T07:56:06.811Z,74.78
2019-03-31T07:58:41.285Z,74.22
2019-03-31T08:01:15.717Z,75.09
2019-03-31T08:03:50.129Z,74.66
2019-03-31T08:06:24.589Z,74.25
2019-03-31T08:08:58.943Z,73.89
2019-03-31T08:11:33.392Z,73.74
2019-03-31T08:14:07.962Z,72.68
2019-03-31T08:16:42.463Z,72.24
2019-03-31T08:19:16.951Z,72.68
2019-03-31T08:21:51.609Z,72.02
2019-03-31T08:24:26.270Z,71.81
2019-03-31T08:27:00.888Z,70.92
2019-03-31T08:29:36.425Z,70.15
2019-03-31T08:32:13.297Z,69.91
2019-03-31T08:34:48.188Z,68.50
2019-03-31T08:37:25.000Z,61.77
2019-03-31T08:39:59.944Z,59.66
2019-03-31T08:42:34.786Z,58.74
2019-03-31T08:45:10.307Z,59.55
2019-03-31T08:47:44.872Z,60.95
2019-03-31T08:50:20.082Z,62.64
2019-03-31T08:52:54.601Z,63.67
2019-03-31T08:55:29.034Z,64.55
2019-03-31T08:58:03.594Z,64.38
2019-03-31T09:00:51.275Z,64.07
2019-03-31T09:03:26.115Z,65.57
2019-03-31T09:06:02.439Z,65.83
2019-03-31T09:08:40.096Z,66.17
2019-03-31T09:11:16.827Z,66.68
2019-03-31T09:13:51.271Z,67.15
2019-03-31T09:16:25.773Z,66.63
2019-03-31T09:19:00.451Z,65.78
2019-03-31T09:21:35.004Z,65.54
2019-03-31T09:24:09.565Z,65.94
2019-03-31T09:26:45.922Z,65.76
2019-03-31T09:29:20.653Z,66.56
2019-03-31T09:31:55.224Z,66.20
2019-03-31T09:34:30.060Z,65.52
2019-03-31T09:37:04.741Z,64.62
2019-03-31T09:39:42.978Z,65.49
2019-03-31T09:42:17.706Z,64.29
2019-03-31T09:44:52.373Z,64.19
2019-03-31T09:47:27.039Z,63.32
2019-03-31T09:50:04.451Z,63.65
2019-03-31T09:52:38.917Z,63.36
2019-03-31T09:55:15.215Z,62.76
2019-03-31T09:57:51.273Z,62.32
2019-03-31T10:00:48.804Z,62.23
2019-03-31T10:03:25.322Z,62.13
2019-03-31T10:06:10.782Z,60.72
2019-03-31T10:08:37.215Z,60.19
2019-03-31T10:11:13.568Z,59.18
2019-03-31T10:13:50.456Z,57.88
2019-03-31T10:16:29.993Z,57.57
2019-03-31T10:19:07.491Z,56.07
2019-03-31T10:21:43.340Z,55.55
2019-03-31T10:24:22.253Z,53.46
2019-03-31T10:26:57.227Z,51.59
2019-03-31T10:29:32.327Z,48.80
2019-03-31T10:32:07.188Z,48.93
2019-03-31T10:34:41.900Z,46.22
2019-03-31T10:37:17.545Z,45.50
2019-03-31T10:39:55.141Z,44.64
2019-03-31T10:42:29.664Z,42.97
2019-03-31T10:45:04.260Z,43.90
2019-03-31T10:47:40.605Z,41.55
2019-03-31T10:50:15.672Z,42.01
2019-03-31T10:52:50.623Z,41.22
2019-03-31T10:55:25.130Z,42.62
2019-03-31T10:57:59.778Z,42.98
2019-03-31T11:00:39.130Z,42.73
2019-03-31T11:03:16.442Z,42.37
2019-03-31T11:05:51.033Z,43.53
2019-03-31T11:08:25.753Z,43.31
2019-03-31T11:11:43.374Z,42.82
2019-03-31T11:14:18.737Z,41.82
2019-03-31T11:16:53.220Z,41.48
2019-03-31T11:19:29.217Z,39.55
2019-03-31T11:22:17.829Z,38.10
2019-03-31T11:24:54.550Z,38.82
2019-03-31T11:27:29.318Z,36.06
2019-03-31T11:30:04.097Z,36.75
2019-03-31T11:32:38.961Z,35.41
2019-03-31T11:35:14.095Z,36.99
2019-03-31T11:37:50.198Z,35.05
2019-03-31T11:40:24.657Z,35.67
2019-03-31T11:43:52.356Z,36.28
2019-03-31T11:46:28.274Z,36.85
2019-03-31T11:49:03.217Z,35.83
2019-03-31T11:51:39.646Z,36.77
2019-03-31T11:54:15.467Z,36.61
2019-03-31T11:56:51.631Z,36.83
2019-03-31T11:59:27.691Z,38.96
2019-03-31T12:02:02.438Z,39.09
2019-03-31T12:04:37.141Z,39.97
2019-03-31T12:07:12.064Z,39.56
2019-03-31T12:09:47.653Z,38.21
2019-03-31T12:12:22.959Z,37.96
2019-03-31T12:15:00.640Z,35.05
2019-03-31T12:17:33.597Z,36.04
2019-03-31T12:20:08.341Z,35.55
2019-03-31T12:22:43.082Z,35.31
2019-03-31T12:25:19.897Z,36.46
2019-03-31T12:27:54.089Z,35.80
2019-03-31T12:30:31.875Z,36.64
2019-03-31T12:33:06.532Z,35.84
2019-03-31T12:35:41.429Z,34.70
2019-03-31T12:38:16.166Z,33.72
2019-03-31T12:40:50.559Z,36.26
2019-03-31T12:43:25.474Z,37.46
2019-03-31T12:46:01.683Z,35.75
2019-03-31T12:48:36.407Z,35.56
2019-03-31T12:51:11.478Z,35.99
2019-03-31T12:53:46.010Z,35.38
2019-03-31T12:56:20.846Z,35.53
2019-03-31T12:58:55.569Z,34.71
2019-03-31T13:01:30.270Z,34.90
2019-03-31T13:04:04.720Z,35.16
2019-03-31T13:06:39.367Z,35.27
2019-03-31T13:09:15.702Z,36.40
2019-03-31T13:11:50.580Z,36.47
2019-03-31T13:14:25.552Z,36.62
2019-03-31T13:17:01.793Z,36.11
2019-03-31T13:19:36.869Z,33.98
2019-03-31T13:22:11.510Z,35.44
2019-03-31T13:24:46.355Z,34.02
2019-03-31T13:27:21.152Z,34.29
2019-03-31T13:29:56.191Z,33.32
2019-03-31T13:32:30.641Z,32.85
2019-03-31T13:35:09.038Z,35.43
2019-03-31T13:37:43.706Z,35.36
2019-03-31T13:40:18.351Z,36.08
2019-03-31T13:42:54.591Z,37.16
2019-03-31T13:45:29.221Z,37.19
2019-03-31T13:48:04.573Z,36.60
2019-03-31T13:50:39.377Z,36.62
2019-03-31T13:53:16.299Z,35.99
2019-03-31T13:55:51.334Z,33.25
2019-03-31T13:58:27.966Z,35.29
2019-03-31T14:01:02.432Z,35.81
2019-03-31T14:03:38.728Z,34.34
2019-03-31T14:06:13.262Z,34.43
2019-03-31T14:08:48.165Z,34.63
2019-03-31T14:11:24.624Z,34.22
2019-03-31T14:14:01.208Z,34.68
2019-03-31T14:16:35.814Z,34.76
2019-03-31T14:19:13.123Z,33.89
2019-03-31T14:21:47.800Z,34.01
2019-03-31T14:24:22.493Z,34.14
2019-03-31T14:26:59.271Z,33.44
2019-03-31T14:29:33.877Z,34.40
2019-03-31T14:32:10.162Z,34.24
2019-03-31T14:34:45.749Z,32.95
2019-03-31T14:37:20.388Z,34.15
2019-03-31T14:39:54.805Z,35.58
2019-03-31T14:42:29.214Z,34.32
2019-03-31T14:45:03.645Z,35.12
2019-03-31T14:47:41.711Z,34.89
2019-03-31T14:50:30.202Z,35.70
2019-03-31T14:53:04.813Z,35.81
2019-03-31T14:55:39.582Z,35.24
2019-03-31T14:58:14.123Z,36.06
2019-03-31T15:00:48.656Z,36.89
2019-03-31T15:03:23.285Z,37.39
2019-03-31T15:05:59.831Z,37.21
2019-03-31T15:08:35.708Z,36.62
2019-03-31T15:11:10.261Z,36.72
2019-03-31T15:13:46.431Z,35.99
2019-03-31T15:16:20.817Z,36.34
2019-03-31T15:18:55.445Z,37.24
2019-03-31T15:21:31.399Z,37.47
2019-03-31T15:24:06.036Z,37.21
2019-03-31T15:26:40.663Z,36.47
2019-03-31T15:29:15.220Z,37.89
2019-03-31T15:31:50.264Z,36.46
2019-03-31T15:34:24.719Z,36.56
2019-03-31T15:37:00.186Z,36.75
2019-03-31T15:39:34.842Z,36.72
2019-03-31T15:42:09.500Z,36.40
2019-03-31T15:44:44.001Z,36.33
2019-03-31T15:47:18.561Z,36.76
2019-03-31T15:49:53.156Z,36.55
2019-03-31T15:52:27.728Z,36.68
2019-03-31T15:55:02.436Z,36.71
2019-03-31T15:57:37.176Z,36.28
2019-03-31T16:00:12.380Z,35.92
2019-03-31T16:02:46.872Z,35.42
2019-03-31T16:05:23.327Z,35.88
2019-03-31T16:07:57.420Z,35.90
2019-03-31T16:10:31.443Z,34.64
2019-03-31T16:13:05.093Z,34.78
2019-03-31T16:15:38.823Z,35.42
2019-03-31T16:18:12.496Z,34.52
2019-03-31T16:20:46.886Z,35.31
2019-03-31T16:23:20.511Z,35.89
2019-03-31T16:25:56.832Z,36.23
2019-03-31T16:28:31.888Z,36.08
2019-03-31T16:31:06.628Z,37.24
2019-03-31T16:33:41.131Z,36.93
2019-03-31T16:36:16.394Z,37.07
2019-03-31T16:38:52.144Z,38.09
2019-03-31T16:41:25.775Z,38.55
2019-03-31T16:43:59.802Z,38.67
2019-03-31T16:46:33.506Z,38.16
2019-03-31T16:49:07.478Z,37.33
2019-03-31T16:51:41.355Z,38.25
2019-03-31T16:54:16.514Z,37.57
2019-03-31T16:56:50.559Z,37.47
2019-03-31T16:59:24.225Z,37.87
2019-03-31T17:01:59.487Z,37.71
2019-03-31T17:04:33.190Z,38.13
2019-03-31T17:07:07.956Z,38.16
2019-03-31T17:09:51.320Z,38.73
2019-03-31T17:12:17.870Z,39.43
2019-03-31T17:14:52.788Z,39.42
2019-03-31T17:17:27.175Z,40.15
2019-03-31T17:20:02.690Z,39.49
2019-03-31T17:22:36.239Z,39.66
2019-03-31T17:25:10.192Z,39.79
2019-03-31T17:27:43.811Z,40.29
2019-03-31T17:30:22.589Z,40.21
2019-03-31T17:32:56.542Z,40.44
2019-03-31T17:35:30.811Z,39.98
2019-03-31T17:38:05.011Z,39.25
2019-03-31T17:40:39.684Z,39.30
2019-03-31T17:43:14.659Z,39.16
2019-03-31T17:45:51.314Z,39.98
2019-03-31T17:48:27.991Z,39.50
2019-03-31T17:51:01.682Z,40.41
2019-03-31T17:53:38.771Z,41.02
2019-03-31T17:56:14.647Z,40.96
2019-03-31T17:58:49.272Z,42.66
2019-03-31T18:01:22.959Z,41.99
2019-03-31T18:03:56.662Z,42.22
2019-03-31T18:06:33.399Z,42.81
2019-03-31T18:09:10.169Z,43.45
2019-03-31T18:11:47.912Z,44.33
2019-03-31T18:14:21.443Z,45.07
2019-03-31T18:16:57.884Z,45.88
2019-03-31T18:19:31.699Z,46.33
2019-03-31T18:22:16.425Z,46.39
2019-03-31T18:24:41.511Z,47.19
2019-03-31T18:27:18.516Z,47.56
2019-03-31T18:29:52.805Z,47.47
2019-03-31T18:32:28.067Z,48.78
2019-03-31T18:35:02.312Z,48.24
2019-03-31T18:37:35.926Z,48.32
2019-03-31T18:40:12.591Z,48.34
2019-03-31T18:42:49.583Z,48.95
2019-03-31T18:45:24.045Z,48.96
2019-03-31T18:48:03.224Z,49.64
2019-03-31T18:50:36.835Z,49.93
2019-03-31T18:53:12.926Z,50.11
2019-03-31T18:56:08.685Z,50.30
2019-03-31T18:59:09.854Z,50.60
2019-03-31T19:01:55.180Z,50.73
2019-03-31T19:04:39.336Z,50.48
2019-03-31T19:07:45.408Z,51.01
2019-03-31T19:10:49.652Z,50.17
2019-03-31T19:13:38.374Z,50.62
2019-03-31T19:16:46.232Z,50.77
2019-03-31T19:19:51.389Z,50.76
2019-03-31T19:22:56.337Z,51.18
2019-03-31T19:25:47.675Z,50.69
2019-03-31T19:28:39.637Z,51.00
2019-03-31T19:31:23.704Z,51.42
2019-03-31T19:34:22.601Z,51.15
2019-03-31T19:37:03.196Z,51.63
2019-03-31T19:40:08.304Z,50.94
2019-03-31T19:43:18.708Z,50.89
2019-03-31T19:46:08.671Z,50.74
2019-03-31T19:48:48.235Z,50.88
2019-03-31T19:51:54.918Z,51.21
2019-03-31T19:55:03.017Z,50.69
2019-03-31T19:58:02.639Z,51.22
2019-03-31T20:00:50.446Z,50.93
2019-03-31T20:03:40.762Z,50.81
2019-03-31T20:06:39.183Z,51.09
2019-03-31T20:09:32.083Z,50.80
2019-03-31T20:12:36.503Z,51.19
2019-03-31T20:15:40.622Z,51.16
2019-03-31T20:18:41.113Z,51.13
2019-03-31T20:21:31.797Z,51.23
2019-03-31T20:24:18.667Z,51.39
2019-03-31T20:26:58.553Z,51.91
2019-03-31T20:29:43.451Z,52.21
2019-03-31T20:32:41.812Z,52.44
2019-03-31T20:35:40.031Z,52.86
2019-03-31T20:38:31.954Z,53.07
2019-03-31T20:41:27.290Z,53.26
2019-03-31T20:44:00.914Z,53.48
2019-03-31T20:46:34.815Z,53.72
2019-03-31T20:49:08.473Z,54.14
2019-03-31T20:51:42.135Z,54.50
2019-03-31T20:54:15.811Z,55.36
2019-03-31T20:56:49.428Z,55.61
2019-03-31T20:59:24.060Z,56.08
2019-03-31T21:01:58.097Z,56.23
2019-03-31T21:04:31.671Z,56.33
2019-03-31T21:07:05.277Z,56.81
2019-03-31T21:09:45.268Z,57.48
2019-03-31T21:12:14.251Z,57.43
2019-03-31T21:14:47.939Z,57.24
2019-03-31T21:17:23.326Z,58.20
2019-03-31T21:19:57.337Z,58.12
2019-03-31T21:22:31.001Z,58.49
2019-03-31T21:25:04.789Z,58.73
2019-03-31T21:27:38.599Z,59.21
2019-03-31T21:30:12.879Z,59.13
2019-03-31T21:32:46.748Z,60.04
2019-03-31T21:35:20.761Z,60.19
2019-03-31T21:37:54.466Z,60.08
2019-03-31T21:40:28.067Z,60.49
2019-03-31T21:43:02.875Z,60.44
2019-03-31T21:45:36.444Z,60.03
2019-03-31T21:48:10.018Z,59.96
2019-03-31T21:50:45.137Z,60.13
2019-03-31T21:53:18.844Z,60.39
2019-03-31T21:55:52.979Z,60.40
2019-03-31T21:58:27.688Z,60.48
2019-03-31T22:01:03.338Z,60.05
2019-03-31T22:03:36.900Z,60.56
2019-03-31T22:06:10.511Z,60.80
2019-03-31T22:08:44.256Z,61.01
2019-03-31T22:11:21.144Z,60.67
2019-03-31T22:13:56.061Z,60.00
2019-03-31T22:16:29.770Z,60.54
2019-03-31T22:19:03.680Z,60.31
2019-03-31T22:21:38.675Z,60.65
2019-03-31T22:24:12.363Z,60.66
2019-03-31T22:26:46.065Z,59.90
2019-03-31T22:29:19.867Z,60.04
2019-03-31T22:31:54.016Z,59.77
2019-03-31T22:34:30.537Z,59.31
2019-03-31T22:37:05.350Z,59.47
2019-03-31T22:39:39.391Z,60.23
2019-03-31T22:42:13.076Z,59.99
2019-03-31T22:44:46.735Z,60.48
2019-03-31T22:47:20.992Z,60.71
2019-03-31T22:49:54.806Z,61.45
2019-03-31T22:52:28.501Z,61.29
2019-03-31T22:55:02.254Z,60.88
2019-03-31T22:57:37.038Z,60.14
2019-03-31T23:00:17.290Z,60.27
2019-03-31T23:02:52.025Z,59.32
2019-03-31T23:05:25.766Z,58.92
2019-03-31T23:08:00.870Z,58.65
2019-03-31T23:10:34.471Z,58.36
2019-03-31T23:13:11.043Z,58.35
2019-03-31T23:15:44.737Z,58.18
2019-03-31T23:18:18.276Z,57.77
2019-03-31T23:20:51.859Z,57.77
2019-03-31T23:23:25.437Z,57.95
2019-03-31T23:25:59.169Z,58.15
2019-03-31T23:28:32.767Z,58.29
2019-03-31T23:31:06.374Z,58.08
2019-03-31T23:33:40.204Z,57.52
2019-03-31T23:36:13.828Z,57.67
2019-03-31T23:38:47.360Z,58.30
2019-03-31T23:41:20.947Z,58.11
2019-03-31T23:43:56.432Z,58.22
2019-03-31T23:46:30.649Z,58.08
2019-03-31T23:49:04.355Z,58.19
2019-03-31T23:51:39.290Z,58.30
2019-03-31T23:54:13.036Z,58.98
2019-03-31T23:56:46.812Z,59.06
2019-03-31T23:59:21.529Z,58.68
